sensor_id;sensor_type;location;lat;lon;timestamp;temperature;humidity
51655;DHT22;37732;53.106;7.030;2023-06-26T00:01:13;21.20;99.90
51655;DHT22;37732;53.106;7.030;2023-06-26T00:03:39;21.10;99.90
51655;DHT22;37732;53.106;7.030;2023-06-26T00:06:04;21.10;99.90
51655;DHT22;37732;53.106;7.030;2023-06-26T00:08:30;21.10;99.90
51655;DHT22;37732;53.106;7.030;2023-06-26T00:10:56;21.00;99.90
51655;DHT22;37732;53.106;7.030;2023-06-26T00:13:22;20.90;99.90
51655;DHT22;37732;53.106;7.030;2023-06-26T00:15:48;20.90;99.90
51655;DHT22;37732;53.106;7.030;2023-06-26T00:18:13;20.90;99.90
51655;DHT22;37732;53.106;7.030;2023-06-26T00:20:39;20.90;99.90
51655;DHT22;37732;53.106;7.030;2023-06-26T00:23:04;20.90;99.90
51655;DHT22;37732;53.106;7.030;2023-06-26T00:25:33;20.80;99.90
51655;DHT22;37732;53.106;7.030;2023-06-26T00:27:58;20.80;99.90
51655;DHT22;37732;53.106;7.030;2023-06-26T00:30:24;20.90;99.90
51655;DHT22;37732;53.106;7.030;2023-06-26T00:32:49;20.90;99.90
51655;DHT22;37732;53.106;7.030;2023-06-26T00:35:16;20.90;99.90
51655;DHT22;37732;53.106;7.030;2023-06-26T00:37:42;20.90;99.90
51655;DHT22;37732;53.106;7.030;2023-06-26T00:40:07;20.70;99.90
51655;DHT22;37732;53.106;7.030;2023-06-26T00:42:33;20.80;99.90
51655;DHT22;37732;53.106;7.030;2023-06-26T00:44:59;20.70;99.90
51655;DHT22;37732;53.106;7.030;2023-06-26T00:47:24;20.70;99.90
51655;DHT22;37732;53.106;7.030;2023-06-26T00:49:51;20.60;99.90
51655;DHT22;37732;53.106;7.030;2023-06-26T00:52:17;20.60;99.90
51655;DHT22;37732;53.106;7.030;2023-06-26T00:54:42;20.60;99.90
51655;DHT22;37732;53.106;7.030;2023-06-26T00:57:08;20.60;99.90
51655;DHT22;37732;53.106;7.030;2023-06-26T00:59:34;20.60;99.90
51655;DHT22;37732;53.106;7.030;2023-06-26T01:01:59;20.50;99.90
51655;DHT22;37732;53.106;7.030;2023-06-26T01:04:25;20.50;99.90
51655;DHT22;37732;53.106;7.030;2023-06-26T01:06:52;20.50;99.90
51655;DHT22;37732;53.106;7.030;2023-06-26T01:09:19;20.50;99.90
51655;DHT22;37732;53.106;7.030;2023-06-26T01:11:45;20.40;99.90
51655;DHT22;37732;53.106;7.030;2023-06-26T01:14:11;20.40;99.90
51655;DHT22;37732;53.106;7.030;2023-06-26T01:16:37;20.40;99.90
51655;DHT22;37732;53.106;7.030;2023-06-26T01:19:04;20.40;99.90
51655;DHT22;37732;53.106;7.030;2023-06-26T01:21:35;20.30;99.90
51655;DHT22;37732;53.106;7.030;2023-06-26T01:26:29;20.20;99.90
51655;DHT22;37732;53.106;7.030;2023-06-26T01:28:56;20.20;99.90
51655;DHT22;37732;53.106;7.030;2023-06-26T01:31:22;20.20;99.90
51655;DHT22;37732;53.106;7.030;2023-06-26T01:33:47;20.20;99.90
51655;DHT22;37732;53.106;7.030;2023-06-26T01:36:14;20.10;99.90
51655;DHT22;37732;53.106;7.030;2023-06-26T01:38:40;20.20;99.90
51655;DHT22;37732;53.106;7.030;2023-06-26T01:41:06;20.10;99.90
51655;DHT22;37732;53.106;7.030;2023-06-26T01:46:04;20.10;99.90
51655;DHT22;37732;53.106;7.030;2023-06-26T01:48:33;20.10;99.90
51655;DHT22;37732;53.106;7.030;2023-06-26T01:51:00;20.00;99.90
51655;DHT22;37732;53.106;7.030;2023-06-26T01:53:27;20.00;99.90
51655;DHT22;37732;53.106;7.030;2023-06-26T01:56:00;20.00;99.90
51655;DHT22;37732;53.106;7.030;2023-06-26T01:58:27;19.90;99.90
51655;DHT22;37732;53.106;7.030;2023-06-26T02:00:53;19.90;99.90
51655;DHT22;37732;53.106;7.030;2023-06-26T02:03:19;19.80;99.90
51655;DHT22;37732;53.106;7.030;2023-06-26T02:05:45;19.80;99.90
51655;DHT22;37732;53.106;7.030;2023-06-26T02:08:13;19.80;99.90
51655;DHT22;37732;53.106;7.030;2023-06-26T02:10:38;19.80;99.90
51655;DHT22;37732;53.106;7.030;2023-06-26T02:13:04;19.80;99.90
51655;DHT22;37732;53.106;7.030;2023-06-26T02:15:29;19.80;99.90
51655;DHT22;37732;53.106;7.030;2023-06-26T02:17:55;19.80;99.90
51655;DHT22;37732;53.106;7.030;2023-06-26T02:20:20;19.80;99.90
51655;DHT22;37732;53.106;7.030;2023-06-26T02:22:46;19.80;99.90
51655;DHT22;37732;53.106;7.030;2023-06-26T02:25:11;19.70;99.90
51655;DHT22;37732;53.106;7.030;2023-06-26T02:27:38;19.80;99.90
51655;DHT22;37732;53.106;7.030;2023-06-26T02:30:04;19.80;99.90
51655;DHT22;37732;53.106;7.030;2023-06-26T02:32:29;19.80;99.90
51655;DHT22;37732;53.106;7.030;2023-06-26T02:34:55;19.80;99.90
51655;DHT22;37732;53.106;7.030;2023-06-26T02:37:20;19.80;99.90
51655;DHT22;37732;53.106;7.030;2023-06-26T02:39:46;19.80;99.90
51655;DHT22;37732;53.106;7.030;2023-06-26T02:42:12;19.80;99.90
51655;DHT22;37732;53.106;7.030;2023-06-26T02:44:37;19.80;99.90
51655;DHT22;37732;53.106;7.030;2023-06-26T02:47:03;19.70;99.90
51655;DHT22;37732;53.106;7.030;2023-06-26T02:49:28;19.70;99.90
51655;DHT22;37732;53.106;7.030;2023-06-26T02:51:54;19.60;99.90
51655;DHT22;37732;53.106;7.030;2023-06-26T02:54:20;19.60;99.90
51655;DHT22;37732;53.106;7.030;2023-06-26T02:56:45;19.60;99.90
51655;DHT22;37732;53.106;7.030;2023-06-26T02:59:11;19.50;99.90
51655;DHT22;37732;53.106;7.030;2023-06-26T03:01:36;19.60;99.90
51655;DHT22;37732;53.106;7.030;2023-06-26T03:04:02;19.60;99.90
51655;DHT22;37732;53.106;7.030;2023-06-26T03:06:28;19.60;99.90
51655;DHT22;37732;53.106;7.030;2023-06-26T03:08:53;19.60;99.90
51655;DHT22;37732;53.106;7.030;2023-06-26T03:11:19;19.60;99.90
51655;DHT22;37732;53.106;7.030;2023-06-26T03:13:45;19.60;99.90
51655;DHT22;37732;53.106;7.030;2023-06-26T03:16:10;19.60;99.90
51655;DHT22;37732;53.106;7.030;2023-06-26T03:18:36;19.70;99.90
51655;DHT22;37732;53.106;7.030;2023-06-26T03:21:01;19.70;99.90
51655;DHT22;37732;53.106;7.030;2023-06-26T03:23:27;19.70;99.90
51655;DHT22;37732;53.106;7.030;2023-06-26T03:25:53;19.70;99.90
51655;DHT22;37732;53.106;7.030;2023-06-26T03:28:19;19.70;99.90
51655;DHT22;37732;53.106;7.030;2023-06-26T03:30:44;19.70;99.90
51655;DHT22;37732;53.106;7.030;2023-06-26T03:33:10;19.70;99.90
51655;DHT22;37732;53.106;7.030;2023-06-26T03:35:36;19.70;99.90
51655;DHT22;37732;53.106;7.030;2023-06-26T03:38:01;19.70;99.90
51655;DHT22;37732;53.106;7.030;2023-06-26T03:40:27;19.70;99.90
51655;DHT22;37732;53.106;7.030;2023-06-26T03:42:52;19.60;99.90
51655;DHT22;37732;53.106;7.030;2023-06-26T03:45:18;19.70;99.90
51655;DHT22;37732;53.106;7.030;2023-06-26T03:47:44;19.60;99.90
51655;DHT22;37732;53.106;7.030;2023-06-26T03:50:12;19.70;99.90
51655;DHT22;37732;53.106;7.030;2023-06-26T03:52:37;19.60;99.90
51655;DHT22;37732;53.106;7.030;2023-06-26T03:55:03;19.60;99.90
51655;DHT22;37732;53.106;7.030;2023-06-26T03:57:29;19.60;99.90
51655;DHT22;37732;53.106;7.030;2023-06-26T03:59:54;19.60;99.90
51655;DHT22;37732;53.106;7.030;2023-06-26T04:02:20;19.60;99.90
51655;DHT22;37732;53.106;7.030;2023-06-26T04:04:45;19.60;99.90
51655;DHT22;37732;53.106;7.030;2023-06-26T04:07:11;19.60;99.90
51655;DHT22;37732;53.106;7.030;2023-06-26T04:09:36;19.60;99.90
51655;DHT22;37732;53.106;7.030;2023-06-26T04:12:02;19.70;99.90
51655;DHT22;37732;53.106;7.030;2023-06-26T04:14:28;19.70;99.90
51655;DHT22;37732;53.106;7.030;2023-06-26T04:16:53;19.80;99.90
51655;DHT22;37732;53.106;7.030;2023-06-26T04:19:19;19.80;99.90
51655;DHT22;37732;53.106;7.030;2023-06-26T04:21:44;19.90;99.90
51655;DHT22;37732;53.106;7.030;2023-06-26T04:24:10;20.00;99.90
51655;DHT22;37732;53.106;7.030;2023-06-26T04:26:36;20.00;99.90
51655;DHT22;37732;53.106;7.030;2023-06-26T04:29:03;20.10;99.90
51655;DHT22;37732;53.106;7.030;2023-06-26T04:31:29;20.10;99.90
51655;DHT22;37732;53.106;7.030;2023-06-26T04:33:54;20.20;99.90
51655;DHT22;37732;53.106;7.030;2023-06-26T04:36:21;20.20;99.90
51655;DHT22;37732;53.106;7.030;2023-06-26T04:38:46;20.20;99.90
51655;DHT22;37732;53.106;7.030;2023-06-26T04:41:13;20.20;99.90
51655;DHT22;37732;53.106;7.030;2023-06-26T04:43:39;20.20;99.90
51655;DHT22;37732;53.106;7.030;2023-06-26T04:46:05;20.20;99.90
51655;DHT22;37732;53.106;7.030;2023-06-26T04:48:31;20.20;99.90
51655;DHT22;37732;53.106;7.030;2023-06-26T04:50:56;20.30;99.90
51655;DHT22;37732;53.106;7.030;2023-06-26T04:53:24;20.30;99.90
51655;DHT22;37732;53.106;7.030;2023-06-26T04:55:50;20.30;99.90
51655;DHT22;37732;53.106;7.030;2023-06-26T04:58:16;20.30;99.90
51655;DHT22;37732;53.106;7.030;2023-06-26T05:00:41;20.40;99.90
51655;DHT22;37732;53.106;7.030;2023-06-26T05:03:14;20.40;99.90
51655;DHT22;37732;53.106;7.030;2023-06-26T05:05:40;20.50;99.90
51655;DHT22;37732;53.106;7.030;2023-06-26T05:08:22;20.60;99.90
51655;DHT22;37732;53.106;7.030;2023-06-26T05:10:48;20.70;99.90
51655;DHT22;37732;53.106;7.030;2023-06-26T05:13:13;20.80;99.90
51655;DHT22;37732;53.106;7.030;2023-06-26T05:15:43;20.90;99.90
51655;DHT22;37732;53.106;7.030;2023-06-26T05:18:08;21.00;99.90
51655;DHT22;37732;53.106;7.030;2023-06-26T05:20:34;21.10;99.90
51655;DHT22;37732;53.106;7.030;2023-06-26T05:23:01;21.20;99.90
51655;DHT22;37732;53.106;7.030;2023-06-26T05:25:27;21.30;99.90
51655;DHT22;37732;53.106;7.030;2023-06-26T05:27:54;21.40;99.90
51655;DHT22;37732;53.106;7.030;2023-06-26T05:30:20;21.50;99.90
51655;DHT22;37732;53.106;7.030;2023-06-26T05:32:46;21.60;99.90
51655;DHT22;37732;53.106;7.030;2023-06-26T05:35:12;21.60;99.90
51655;DHT22;37732;53.106;7.030;2023-06-26T05:37:38;21.60;99.90
51655;DHT22;37732;53.106;7.030;2023-06-26T05:40:04;21.70;99.90
51655;DHT22;37732;53.106;7.030;2023-06-26T05:42:30;21.80;99.90
51655;DHT22;37732;53.106;7.030;2023-06-26T05:44:56;21.90;99.90
51655;DHT22;37732;53.106;7.030;2023-06-26T05:47:22;22.00;99.90
51655;DHT22;37732;53.106;7.030;2023-06-26T05:49:47;22.10;99.90
51655;DHT22;37732;53.106;7.030;2023-06-26T05:52:13;22.20;99.90
51655;DHT22;37732;53.106;7.030;2023-06-26T05:54:39;22.20;99.90
51655;DHT22;37732;53.106;7.030;2023-06-26T05:57:04;22.30;99.90
51655;DHT22;37732;53.106;7.030;2023-06-26T05:59:33;22.30;99.90
51655;DHT22;37732;53.106;7.030;2023-06-26T06:02:01;22.40;99.90
51655;DHT22;37732;53.106;7.030;2023-06-26T06:04:26;22.30;99.90
51655;DHT22;37732;53.106;7.030;2023-06-26T06:06:52;22.30;99.90
51655;DHT22;37732;53.106;7.030;2023-06-26T06:09:18;22.10;99.90
51655;DHT22;37732;53.106;7.030;2023-06-26T06:11:43;21.90;99.90
51655;DHT22;37732;53.106;7.030;2023-06-26T06:14:09;22.00;99.90
51655;DHT22;37732;53.106;7.030;2023-06-26T06:16:34;21.90;99.90
51655;DHT22;37732;53.106;7.030;2023-06-26T06:19:00;21.70;99.90
51655;DHT22;37732;53.106;7.030;2023-06-26T06:21:26;21.60;99.90
51655;DHT22;37732;53.106;7.030;2023-06-26T06:23:51;21.50;99.90
51655;DHT22;37732;53.106;7.030;2023-06-26T06:26:17;21.50;99.90
51655;DHT22;37732;53.106;7.030;2023-06-26T06:28:42;21.60;99.90
51655;DHT22;37732;53.106;7.030;2023-06-26T06:31:08;21.50;99.90
51655;DHT22;37732;53.106;7.030;2023-06-26T06:33:33;21.40;99.90
51655;DHT22;37732;53.106;7.030;2023-06-26T06:35:59;21.30;99.90
51655;DHT22;37732;53.106;7.030;2023-06-26T06:38:25;21.10;99.90
51655;DHT22;37732;53.106;7.030;2023-06-26T06:40:50;21.10;99.90
51655;DHT22;37732;53.106;7.030;2023-06-26T06:43:16;21.00;99.90
51655;DHT22;37732;53.106;7.030;2023-06-26T06:45:41;20.80;99.90
51655;DHT22;37732;53.106;7.030;2023-06-26T06:48:07;20.80;99.90
51655;DHT22;37732;53.106;7.030;2023-06-26T06:50:33;20.90;99.90
51655;DHT22;37732;53.106;7.030;2023-06-26T06:52:58;21.00;99.90
51655;DHT22;37732;53.106;7.030;2023-06-26T06:55:24;21.10;99.90
51655;DHT22;37732;53.106;7.030;2023-06-26T06:57:51;21.00;99.90
51655;DHT22;37732;53.106;7.030;2023-06-26T07:00:16;21.00;99.90
51655;DHT22;37732;53.106;7.030;2023-06-26T07:02:43;21.10;99.90
51655;DHT22;37732;53.106;7.030;2023-06-26T07:05:09;21.00;99.90
51655;DHT22;37732;53.106;7.030;2023-06-26T07:07:35;21.10;99.90
51655;DHT22;37732;53.106;7.030;2023-06-26T07:10:02;21.10;99.90
51655;DHT22;37732;53.106;7.030;2023-06-26T07:12:28;21.20;99.90
51655;DHT22;37732;53.106;7.030;2023-06-26T07:14:54;21.40;99.90
51655;DHT22;37732;53.106;7.030;2023-06-26T07:17:20;21.50;99.90
51655;DHT22;37732;53.106;7.030;2023-06-26T07:19:46;21.50;99.90
51655;DHT22;37732;53.106;7.030;2023-06-26T07:22:12;21.50;99.90
51655;DHT22;37732;53.106;7.030;2023-06-26T07:24:37;21.60;99.90
51655;DHT22;37732;53.106;7.030;2023-06-26T07:27:03;21.60;99.90
51655;DHT22;37732;53.106;7.030;2023-06-26T07:29:29;21.70;99.90
51655;DHT22;37732;53.106;7.030;2023-06-26T07:31:54;21.90;99.90
51655;DHT22;37732;53.106;7.030;2023-06-26T07:34:20;22.20;99.90
51655;DHT22;37732;53.106;7.030;2023-06-26T07:36:45;22.40;99.90
51655;DHT22;37732;53.106;7.030;2023-06-26T07:39:11;22.60;99.90
51655;DHT22;37732;53.106;7.030;2023-06-26T07:41:36;22.70;99.90
51655;DHT22;37732;53.106;7.030;2023-06-26T07:44:02;23.00;99.90
51655;DHT22;37732;53.106;7.030;2023-06-26T07:46:27;23.10;99.90
51655;DHT22;37732;53.106;7.030;2023-06-26T07:48:53;23.00;99.90
51655;DHT22;37732;53.106;7.030;2023-06-26T07:51:19;23.10;99.90
51655;DHT22;37732;53.106;7.030;2023-06-26T07:53:45;23.20;99.90
51655;DHT22;37732;53.106;7.030;2023-06-26T07:56:10;23.10;99.90
51655;DHT22;37732;53.106;7.030;2023-06-26T07:58:36;23.20;99.90
51655;DHT22;37732;53.106;7.030;2023-06-26T08:01:01;23.40;99.90
51655;DHT22;37732;53.106;7.030;2023-06-26T08:03:27;23.30;99.90
51655;DHT22;37732;53.106;7.030;2023-06-26T08:05:53;23.20;99.90
51655;DHT22;37732;53.106;7.030;2023-06-26T08:08:18;23.10;99.90
51655;DHT22;37732;53.106;7.030;2023-06-26T08:10:44;23.20;99.90
51655;DHT22;37732;53.106;7.030;2023-06-26T08:13:09;23.40;99.90
51655;DHT22;37732;53.106;7.030;2023-06-26T08:15:35;23.60;99.90
51655;DHT22;37732;53.106;7.030;2023-06-26T08:18:00;23.60;99.90
51655;DHT22;37732;53.106;7.030;2023-06-26T08:20:26;23.60;99.90
51655;DHT22;37732;53.106;7.030;2023-06-26T08:22:51;23.50;99.90
51655;DHT22;37732;53.106;7.030;2023-06-26T08:25:18;23.60;99.90
51655;DHT22;37732;53.106;7.030;2023-06-26T08:27:44;23.80;99.90
51655;DHT22;37732;53.106;7.030;2023-06-26T08:30:10;24.00;99.90
51655;DHT22;37732;53.106;7.030;2023-06-26T08:32:35;24.10;99.90
51655;DHT22;37732;53.106;7.030;2023-06-26T08:35:01;23.70;99.90
51655;DHT22;37732;53.106;7.030;2023-06-26T08:37:26;23.40;99.90
51655;DHT22;37732;53.106;7.030;2023-06-26T08:39:52;23.40;99.90
51655;DHT22;37732;53.106;7.030;2023-06-26T08:42:17;23.20;99.90
51655;DHT22;37732;53.106;7.030;2023-06-26T08:44:43;23.20;99.90
51655;DHT22;37732;53.106;7.030;2023-06-26T08:47:10;23.30;99.90
51655;DHT22;37732;53.106;7.030;2023-06-26T08:52:02;23.40;99.90
51655;DHT22;37732;53.106;7.030;2023-06-26T08:54:33;23.20;99.90
51655;DHT22;37732;53.106;7.030;2023-06-26T08:56:59;23.00;99.90
51655;DHT22;37732;53.106;7.030;2023-06-26T08:59:25;22.80;99.90
51655;DHT22;37732;53.106;7.030;2023-06-26T09:01:51;23.00;99.90
51655;DHT22;37732;53.106;7.030;2023-06-26T09:04:17;23.00;99.90
51655;DHT22;37732;53.106;7.030;2023-06-26T09:06:42;23.50;99.90
51655;DHT22;37732;53.106;7.030;2023-06-26T09:09:09;24.00;99.90
51655;DHT22;37732;53.106;7.030;2023-06-26T09:11:35;24.10;99.90
51655;DHT22;37732;53.106;7.030;2023-06-26T09:14:01;24.30;99.90
51655;DHT22;37732;53.106;7.030;2023-06-26T09:16:30;24.30;99.30
51655;DHT22;37732;53.106;7.030;2023-06-26T09:18:56;24.30;99.40
51655;DHT22;37732;53.106;7.030;2023-06-26T09:21:21;24.00;98.70
51655;DHT22;37732;53.106;7.030;2023-06-26T09:23:47;23.90;99.90
51655;DHT22;37732;53.106;7.030;2023-06-26T09:26:13;23.90;99.90
51655;DHT22;37732;53.106;7.030;2023-06-26T09:28:41;24.00;99.90
51655;DHT22;37732;53.106;7.030;2023-06-26T09:31:07;24.30;99.90
51655;DHT22;37732;53.106;7.030;2023-06-26T09:33:36;24.60;99.60
51655;DHT22;37732;53.106;7.030;2023-06-26T09:36:05;24.70;97.70
51655;DHT22;37732;53.106;7.030;2023-06-26T09:38:31;24.90;99.10
51655;DHT22;37732;53.106;7.030;2023-06-26T09:40:57;24.70;98.60
51655;DHT22;37732;53.106;7.030;2023-06-26T09:43:23;24.40;98.70
51655;DHT22;37732;53.106;7.030;2023-06-26T09:45:48;24.10;97.90
51655;DHT22;37732;53.106;7.030;2023-06-26T09:48:14;24.00;98.90
51655;DHT22;37732;53.106;7.030;2023-06-26T09:50:41;24.20;99.00
51655;DHT22;37732;53.106;7.030;2023-06-26T09:53:10;24.40;98.40
51655;DHT22;37732;53.106;7.030;2023-06-26T09:55:36;24.90;98.90
51655;DHT22;37732;53.106;7.030;2023-06-26T09:58:02;25.20;98.60
51655;DHT22;37732;53.106;7.030;2023-06-26T10:00:28;24.80;97.20
51655;DHT22;37732;53.106;7.030;2023-06-26T10:02:54;24.90;98.90
51655;DHT22;37732;53.106;7.030;2023-06-26T10:05:19;25.10;99.50
51655;DHT22;37732;53.106;7.030;2023-06-26T10:07:45;25.30;96.10
51655;DHT22;37732;53.106;7.030;2023-06-26T10:10:11;25.10;96.20
51655;DHT22;37732;53.106;7.030;2023-06-26T10:12:37;25.20;95.90
51655;DHT22;37732;53.106;7.030;2023-06-26T10:15:03;25.20;96.00
51655;DHT22;37732;53.106;7.030;2023-06-26T10:17:32;25.00;95.40
51655;DHT22;37732;53.106;7.030;2023-06-26T10:20:00;25.10;95.50
51655;DHT22;37732;53.106;7.030;2023-06-26T10:22:27;25.40;95.90
51655;DHT22;37732;53.106;7.030;2023-06-26T10:24:55;25.60;96.00
51655;DHT22;37732;53.106;7.030;2023-06-26T10:27:21;26.00;95.00
51655;DHT22;37732;53.106;7.030;2023-06-26T10:29:52;26.10;94.40
51655;DHT22;37732;53.106;7.030;2023-06-26T10:32:18;26.30;94.00
51655;DHT22;37732;53.106;7.030;2023-06-26T10:34:45;25.90;92.90
51655;DHT22;37732;53.106;7.030;2023-06-26T10:37:11;25.70;91.20
51655;DHT22;37732;53.106;7.030;2023-06-26T10:42:15;25.10;91.60
51655;DHT22;37732;53.106;7.030;2023-06-26T10:44:42;25.00;92.30
51655;DHT22;37732;53.106;7.030;2023-06-26T10:47:08;25.00;92.60
51655;DHT22;37732;53.106;7.030;2023-06-26T10:49:37;25.40;93.50
51655;DHT22;37732;53.106;7.030;2023-06-26T10:52:04;25.50;92.60
51655;DHT22;37732;53.106;7.030;2023-06-26T10:54:30;25.80;92.00
51655;DHT22;37732;53.106;7.030;2023-06-26T10:56:56;25.90;90.80
51655;DHT22;37732;53.106;7.030;2023-06-26T10:59:25;26.10;91.20
51655;DHT22;37732;53.106;7.030;2023-06-26T11:04:21;26.10;89.50
51655;DHT22;37732;53.106;7.030;2023-06-26T11:07:14;26.10;88.40
51655;DHT22;37732;53.106;7.030;2023-06-26T11:09:53;25.70;87.10
51655;DHT22;37732;53.106;7.030;2023-06-26T11:12:33;25.70;83.20
51655;DHT22;37732;53.106;7.030;2023-06-26T11:14:59;25.90;86.30
51655;DHT22;37732;53.106;7.030;2023-06-26T11:17:25;25.80;84.80
51655;DHT22;37732;53.106;7.030;2023-06-26T11:19:51;25.80;80.90
51655;DHT22;37732;53.106;7.030;2023-06-26T11:22:18;25.60;84.70
51655;DHT22;37732;53.106;7.030;2023-06-26T11:24:44;25.40;81.40
51655;DHT22;37732;53.106;7.030;2023-06-26T11:27:10;25.20;80.00
51655;DHT22;37732;53.106;7.030;2023-06-26T11:29:35;25.10;79.80
51655;DHT22;37732;53.106;7.030;2023-06-26T11:32:02;25.10;81.30
51655;DHT22;37732;53.106;7.030;2023-06-26T11:34:31;25.20;82.90
51655;DHT22;37732;53.106;7.030;2023-06-26T11:36:57;25.10;79.70
51655;DHT22;37732;53.106;7.030;2023-06-26T11:39:22;25.20;82.30
51655;DHT22;37732;53.106;7.030;2023-06-26T11:41:48;25.40;82.10
51655;DHT22;37732;53.106;7.030;2023-06-26T11:44:14;25.00;81.00
51655;DHT22;37732;53.106;7.030;2023-06-26T11:46:45;24.70;82.70
51655;DHT22;37732;53.106;7.030;2023-06-26T11:49:11;24.70;82.30
51655;DHT22;37732;53.106;7.030;2023-06-26T11:51:36;24.60;85.60
51655;DHT22;37732;53.106;7.030;2023-06-26T11:54:02;24.70;86.60
51655;DHT22;37732;53.106;7.030;2023-06-26T11:56:29;24.40;81.60
51655;DHT22;37732;53.106;7.030;2023-06-26T11:59:01;24.40;80.00
51655;DHT22;37732;53.106;7.030;2023-06-26T12:01:37;24.70;83.00
51655;DHT22;37732;53.106;7.030;2023-06-26T12:04:04;24.90;81.80
51655;DHT22;37732;53.106;7.030;2023-06-26T12:06:31;25.10;81.30
51655;DHT22;37732;53.106;7.030;2023-06-26T12:08:57;25.60;82.50
51655;DHT22;37732;53.106;7.030;2023-06-26T12:11:23;25.70;78.80
51655;DHT22;37732;53.106;7.030;2023-06-26T12:13:49;25.60;79.20
51655;DHT22;37732;53.106;7.030;2023-06-26T12:16:15;25.20;75.20
51655;DHT22;37732;53.106;7.030;2023-06-26T12:18:40;25.30;76.50
51655;DHT22;37732;53.106;7.030;2023-06-26T12:21:06;25.20;78.70
51655;DHT22;37732;53.106;7.030;2023-06-26T12:23:32;25.40;77.50
51655;DHT22;37732;53.106;7.030;2023-06-26T12:25:58;25.20;75.30
51655;DHT22;37732;53.106;7.030;2023-06-26T12:28:23;25.20;79.50
51655;DHT22;37732;53.106;7.030;2023-06-26T12:33:36;25.20;80.10
51655;DHT22;37732;53.106;7.030;2023-06-26T12:36:02;25.00;79.30
51655;DHT22;37732;53.106;7.030;2023-06-26T12:38:33;24.90;77.60
51655;DHT22;37732;53.106;7.030;2023-06-26T12:40:59;24.60;76.60
51655;DHT22;37732;53.106;7.030;2023-06-26T12:43:25;24.40;75.90
51655;DHT22;37732;53.106;7.030;2023-06-26T12:45:54;24.60;80.10
51655;DHT22;37732;53.106;7.030;2023-06-26T12:48:20;24.60;75.90
51655;DHT22;37732;53.106;7.030;2023-06-26T12:50:46;24.50;76.70
51655;DHT22;37732;53.106;7.030;2023-06-26T12:53:13;24.30;76.10
51655;DHT22;37732;53.106;7.030;2023-06-26T12:55:38;24.40;77.60
51655;DHT22;37732;53.106;7.030;2023-06-26T12:58:04;24.70;78.70
51655;DHT22;37732;53.106;7.030;2023-06-26T13:00:29;25.10;77.80
51655;DHT22;37732;53.106;7.030;2023-06-26T13:02:57;25.20;77.90
51655;DHT22;37732;53.106;7.030;2023-06-26T13:05:24;25.40;76.50
51655;DHT22;37732;53.106;7.030;2023-06-26T13:07:49;25.60;74.60
51655;DHT22;37732;53.106;7.030;2023-06-26T13:10:15;25.80;76.10
51655;DHT22;37732;53.106;7.030;2023-06-26T13:12:40;25.90;76.20
51655;DHT22;37732;53.106;7.030;2023-06-26T13:15:06;25.80;72.70
51655;DHT22;37732;53.106;7.030;2023-06-26T13:17:32;25.60;71.80
51655;DHT22;37732;53.106;7.030;2023-06-26T13:19:58;25.60;72.60
51655;DHT22;37732;53.106;7.030;2023-06-26T13:22:23;25.20;69.80
51655;DHT22;37732;53.106;7.030;2023-06-26T13:24:49;25.10;73.10
51655;DHT22;37732;53.106;7.030;2023-06-26T13:27:14;24.90;73.30
51655;DHT22;37732;53.106;7.030;2023-06-26T13:29:41;24.80;74.90
51655;DHT22;37732;53.106;7.030;2023-06-26T13:32:07;25.00;73.40
51655;DHT22;37732;53.106;7.030;2023-06-26T13:34:33;25.00;73.40
51655;DHT22;37732;53.106;7.030;2023-06-26T13:36:58;25.00;73.00
51655;DHT22;37732;53.106;7.030;2023-06-26T13:39:25;25.00;71.10
51655;DHT22;37732;53.106;7.030;2023-06-26T13:41:50;25.20;71.60
51655;DHT22;37732;53.106;7.030;2023-06-26T13:44:16;25.10;71.80
51655;DHT22;37732;53.106;7.030;2023-06-26T13:46:42;25.20;71.50
51655;DHT22;37732;53.106;7.030;2023-06-26T13:49:07;25.40;70.70
51655;DHT22;37732;53.106;7.030;2023-06-26T13:51:33;25.40;73.60
51655;DHT22;37732;53.106;7.030;2023-06-26T13:53:58;25.20;71.80
51655;DHT22;37732;53.106;7.030;2023-06-26T13:56:26;24.80;71.90
51655;DHT22;37732;53.106;7.030;2023-06-26T13:58:53;24.70;74.10
51655;DHT22;37732;53.106;7.030;2023-06-26T14:01:18;24.50;71.70
51655;DHT22;37732;53.106;7.030;2023-06-26T14:03:45;24.40;73.40
51655;DHT22;37732;53.106;7.030;2023-06-26T14:06:10;24.50;73.90
51655;DHT22;37732;53.106;7.030;2023-06-26T14:08:36;24.70;73.30
51655;DHT22;37732;53.106;7.030;2023-06-26T14:11:01;24.70;74.90
51655;DHT22;37732;53.106;7.030;2023-06-26T14:13:27;24.80;75.10
51655;DHT22;37732;53.106;7.030;2023-06-26T14:15:52;24.50;73.90
51655;DHT22;37732;53.106;7.030;2023-06-26T14:18:18;24.50;76.10
51655;DHT22;37732;53.106;7.030;2023-06-26T14:20:44;24.30;75.60
51655;DHT22;37732;53.106;7.030;2023-06-26T14:23:10;23.80;75.40
51655;DHT22;37732;53.106;7.030;2023-06-26T14:25:35;23.80;76.90
51655;DHT22;37732;53.106;7.030;2023-06-26T14:28:01;24.00;80.10
51655;DHT22;37732;53.106;7.030;2023-06-26T14:30:27;24.30;76.10
51655;DHT22;37732;53.106;7.030;2023-06-26T14:32:52;24.40;77.10
51655;DHT22;37732;53.106;7.030;2023-06-26T14:35:18;24.40;74.50
51655;DHT22;37732;53.106;7.030;2023-06-26T14:37:44;24.60;77.70
51655;DHT22;37732;53.106;7.030;2023-06-26T14:40:09;24.80;75.90
51655;DHT22;37732;53.106;7.030;2023-06-26T14:42:35;25.00;75.00
51655;DHT22;37732;53.106;7.030;2023-06-26T14:45:01;24.70;72.80
51655;DHT22;37732;53.106;7.030;2023-06-26T14:47:27;24.50;75.20
51655;DHT22;37732;53.106;7.030;2023-06-26T14:49:52;24.10;74.90
51655;DHT22;37732;53.106;7.030;2023-06-26T14:52:18;23.80;76.30
51655;DHT22;37732;53.106;7.030;2023-06-26T14:54:44;23.80;77.90
51655;DHT22;37732;53.106;7.030;2023-06-26T14:57:09;23.60;77.30
51655;DHT22;37732;53.106;7.030;2023-06-26T14:59:36;23.60;78.60
51655;DHT22;37732;53.106;7.030;2023-06-26T15:02:01;23.70;78.60
51655;DHT22;37732;53.106;7.030;2023-06-26T15:04:27;23.70;78.90
51655;DHT22;37732;53.106;7.030;2023-06-26T15:06:53;23.90;79.90
51655;DHT22;37732;53.106;7.030;2023-06-26T15:09:18;24.20;81.60
51655;DHT22;37732;53.106;7.030;2023-06-26T15:11:44;24.60;81.40
51655;DHT22;37732;53.106;7.030;2023-06-26T15:14:09;24.70;76.30
51655;DHT22;37732;53.106;7.030;2023-06-26T15:16:35;24.70;76.40
51655;DHT22;37732;53.106;7.030;2023-06-26T15:19:01;24.40;77.50
51655;DHT22;37732;53.106;7.030;2023-06-26T15:21:26;24.30;79.40
51655;DHT22;37732;53.106;7.030;2023-06-26T15:23:52;24.20;80.90
51655;DHT22;37732;53.106;7.030;2023-06-26T15:26:17;24.30;80.90
51655;DHT22;37732;53.106;7.030;2023-06-26T15:28:43;24.20;80.40
51655;DHT22;37732;53.106;7.030;2023-06-26T15:31:08;24.40;82.60
51655;DHT22;37732;53.106;7.030;2023-06-26T15:33:34;24.50;81.00
51655;DHT22;37732;53.106;7.030;2023-06-26T15:36:00;24.60;81.30
51655;DHT22;37732;53.106;7.030;2023-06-26T15:38:27;24.50;80.50